sensor_id;sensor_type;location;lat;lon;timestamp;P1;durP1;ratioP1;P2;durP2;ratioP2
9117;SDS011;4594;50.994;7.126;2023-02-01T00:02:16;7.70;;;5.80;;
9117;SDS011;4594;50.994;7.126;2023-02-01T00:04:42;9.80;;;6.27;;
9117;SDS011;4594;50.994;7.126;2023-02-01T00:07:08;11.17;;;5.83;;
9117;SDS011;4594;50.994;7.126;2023-02-01T00:09:34;14.47;;;6.43;;
9117;SDS011;4594;50.994;7.126;2023-02-01T00:11:59;8.47;;;5.70;;
9117;SDS011;4594;50.994;7.126;2023-02-01T00:14:27;9.30;;;5.53;;
9117;SDS011;4594;50.994;7.126;2023-02-01T00:16:53;11.83;;;5.67;;
9117;SDS011;4594;50.994;7.126;2023-02-01T00:19:18;12.13;;;5.83;;
9117;SDS011;4594;50.994;7.126;2023-02-01T00:21:44;8.27;;;5.43;;
9117;SDS011;4594;50.994;7.126;2023-02-01T00:24:10;14.60;;;5.90;;
9117;SDS011;4594;50.994;7.126;2023-02-01T00:26:38;9.80;;;5.70;;
9117;SDS011;4594;50.994;7.126;2023-02-01T00:29:11;11.10;;;5.63;;
9117;SDS011;4594;50.994;7.126;2023-02-01T00:31:41;7.77;;;4.73;;
9117;SDS011;4594;50.994;7.126;2023-02-01T00:34:09;9.47;;;4.90;;
9117;SDS011;4594;50.994;7.126;2023-02-01T00:36:39;8.23;;;4.70;;
9117;SDS011;4594;50.994;7.126;2023-02-01T00:39:06;11.20;;;4.90;;
9117;SDS011;4594;50.994;7.126;2023-02-01T00:41:32;10.53;;;4.90;;
9117;SDS011;4594;50.994;7.126;2023-02-01T00:43:57;12.97;;;5.93;;
9117;SDS011;4594;50.994;7.126;2023-02-01T00:46:23;6.63;;;5.00;;
9117;SDS011;4594;50.994;7.126;2023-02-01T00:48:50;8.50;;;5.10;;
9117;SDS011;4594;50.994;7.126;2023-02-01T00:51:17;9.53;;;5.50;;
9117;SDS011;4594;50.994;7.126;2023-02-01T00:53:46;9.33;;;4.97;;
9117;SDS011;4594;50.994;7.126;2023-02-01T00:56:12;12.60;;;5.20;;
9117;SDS011;4594;50.994;7.126;2023-02-01T00:58:38;12.93;;;5.83;;
9117;SDS011;4594;50.994;7.126;2023-02-01T01:01:14;10.07;;;5.20;;
9117;SDS011;4594;50.994;7.126;2023-02-01T01:03:53;10.73;;;5.13;;
9117;SDS011;4594;50.994;7.126;2023-02-01T01:06:32;9.13;;;5.00;;
9117;SDS011;4594;50.994;7.126;2023-02-01T01:08:59;10.20;;;5.07;;
9117;SDS011;4594;50.994;7.126;2023-02-01T01:11:29;13.73;;;5.67;;
9117;SDS011;4594;50.994;7.126;2023-02-01T01:13:58;10.97;;;5.17;;
9117;SDS011;4594;50.994;7.126;2023-02-01T01:16:26;12.00;;;5.17;;
9117;SDS011;4594;50.994;7.126;2023-02-01T01:18:54;10.60;;;4.57;;
9117;SDS011;4594;50.994;7.126;2023-02-01T01:21:21;12.70;;;4.60;;
9117;SDS011;4594;50.994;7.126;2023-02-01T01:23:47;10.43;;;4.57;;
9117;SDS011;4594;50.994;7.126;2023-02-01T01:26:17;12.30;;;4.13;;
9117;SDS011;4594;50.994;7.126;2023-02-01T01:28:48;8.87;;;4.13;;
9117;SDS011;4594;50.994;7.126;2023-02-01T01:31:15;11.53;;;4.70;;
9117;SDS011;4594;50.994;7.126;2023-02-01T01:33:42;17.63;;;4.67;;
9117;SDS011;4594;50.994;7.126;2023-02-01T01:36:09;7.77;;;3.60;;
9117;SDS011;4594;50.994;7.126;2023-02-01T01:38:36;7.73;;;3.23;;
9117;SDS011;4594;50.994;7.126;2023-02-01T01:41:04;10.20;;;3.90;;
9117;SDS011;4594;50.994;7.126;2023-02-01T01:46:19;8.80;;;3.97;;
9117;SDS011;4594;50.994;7.126;2023-02-01T01:48:52;9.43;;;4.10;;
9117;SDS011;4594;50.994;7.126;2023-02-01T01:54:23;8.73;;;3.90;;
9117;SDS011;4594;50.994;7.126;2023-02-01T01:56:56;11.90;;;4.07;;
9117;SDS011;4594;50.994;7.126;2023-02-01T01:59:27;11.63;;;3.60;;
9117;SDS011;4594;50.994;7.126;2023-02-01T02:01:54;9.90;;;3.40;;
9117;SDS011;4594;50.994;7.126;2023-02-01T02:04:20;7.13;;;3.67;;
9117;SDS011;4594;50.994;7.126;2023-02-01T02:06:50;8.50;;;3.47;;
9117;SDS011;4594;50.994;7.126;2023-02-01T02:09:32;6.37;;;3.50;;
9117;SDS011;4594;50.994;7.126;2023-02-01T02:11:59;8.33;;;3.80;;
9117;SDS011;4594;50.994;7.126;2023-02-01T02:14:24;7.50;;;3.10;;
9117;SDS011;4594;50.994;7.126;2023-02-01T02:16:54;7.27;;;3.27;;
9117;SDS011;4594;50.994;7.126;2023-02-01T02:19:27;7.73;;;3.03;;
9117;SDS011;4594;50.994;7.126;2023-02-01T02:31:24;9.50;;;3.37;;
9117;SDS011;4594;50.994;7.126;2023-02-01T02:34:26;6.67;;;3.03;;
9117;SDS011;4594;50.994;7.126;2023-02-01T02:40:07;9.87;;;3.67;;
9117;SDS011;4594;50.994;7.126;2023-02-01T02:43:15;5.63;;;3.13;;
9117;SDS011;4594;50.994;7.126;2023-02-01T02:46:25;6.07;;;2.80;;
9117;SDS011;4594;50.994;7.126;2023-02-01T02:49:39;9.87;;;3.20;;
9117;SDS011;4594;50.994;7.126;2023-02-01T02:52:36;9.80;;;3.10;;
9117;SDS011;4594;50.994;7.126;2023-02-01T02:55:29;6.03;;;3.00;;
9117;SDS011;4594;50.994;7.126;2023-02-01T02:58:00;8.80;;;3.37;;
9117;SDS011;4594;50.994;7.126;2023-02-01T03:00:48;5.63;;;3.10;;
9117;SDS011;4594;50.994;7.126;2023-02-01T03:03:36;8.20;;;3.47;;
9117;SDS011;4594;50.994;7.126;2023-02-01T03:06:22;10.20;;;3.73;;
9117;SDS011;4594;50.994;7.126;2023-02-01T03:08:50;10.43;;;3.83;;
9117;SDS011;4594;50.994;7.126;2023-02-01T03:11:21;10.40;;;3.83;;
9117;SDS011;4594;50.994;7.126;2023-02-01T03:16:28;9.63;;;3.20;;
9117;SDS011;4594;50.994;7.126;2023-02-01T03:22:00;7.43;;;3.37;;
9117;SDS011;4594;50.994;7.126;2023-02-01T03:24:33;6.47;;;3.37;;
9117;SDS011;4594;50.994;7.126;2023-02-01T03:27:25;8.27;;;3.93;;
9117;SDS011;4594;50.994;7.126;2023-02-01T03:32:26;7.40;;;3.53;;
9117;SDS011;4594;50.994;7.126;2023-02-01T03:34:52;14.50;;;4.33;;
9117;SDS011;4594;50.994;7.126;2023-02-01T03:37:26;9.60;;;4.23;;
9117;SDS011;4594;50.994;7.126;2023-02-01T03:39:56;8.63;;;3.70;;
9117;SDS011;4594;50.994;7.126;2023-02-01T03:42:49;11.33;;;4.20;;
9117;SDS011;4594;50.994;7.126;2023-02-01T03:45:25;7.90;;;3.73;;
9117;SDS011;4594;50.994;7.126;2023-02-01T03:48:01;10.13;;;4.20;;
9117;SDS011;4594;50.994;7.126;2023-02-01T03:50:29;8.17;;;4.20;;
9117;SDS011;4594;50.994;7.126;2023-02-01T03:52:59;11.90;;;3.90;;
9117;SDS011;4594;50.994;7.126;2023-02-01T03:55:31;10.17;;;4.20;;
9117;SDS011;4594;50.994;7.126;2023-02-01T03:58:12;13.90;;;4.20;;
9117;SDS011;4594;50.994;7.126;2023-02-01T04:01:00;6.20;;;4.00;;
9117;SDS011;4594;50.994;7.126;2023-02-01T04:03:26;14.67;;;5.17;;
9117;SDS011;4594;50.994;7.126;2023-02-01T04:05:52;9.00;;;4.67;;
9117;SDS011;4594;50.994;7.126;2023-02-01T04:08:19;11.73;;;4.27;;
9117;SDS011;4594;50.994;7.126;2023-02-01T04:10:46;12.60;;;4.13;;
9117;SDS011;4594;50.994;7.126;2023-02-01T04:13:11;10.87;;;4.93;;
9117;SDS011;4594;50.994;7.126;2023-02-01T04:15:37;10.03;;;4.43;;
9117;SDS011;4594;50.994;7.126;2023-02-01T04:18:03;11.83;;;4.77;;
9117;SDS011;4594;50.994;7.126;2023-02-01T04:20:29;8.30;;;3.90;;
9117;SDS011;4594;50.994;7.126;2023-02-01T04:22:55;7.77;;;3.93;;
9117;SDS011;4594;50.994;7.126;2023-02-01T04:25:21;14.03;;;4.33;;
9117;SDS011;4594;50.994;7.126;2023-02-01T04:27:46;6.80;;;4.03;;
9117;SDS011;4594;50.994;7.126;2023-02-01T04:30:12;10.73;;;4.47;;
9117;SDS011;4594;50.994;7.126;2023-02-01T04:32:39;8.07;;;4.30;;
9117;SDS011;4594;50.994;7.126;2023-02-01T04:35:05;11.43;;;4.00;;
9117;SDS011;4594;50.994;7.126;2023-02-01T04:37:32;13.10;;;4.70;;
9117;SDS011;4594;50.994;7.126;2023-02-01T04:39:58;8.63;;;4.10;;
9117;SDS011;4594;50.994;7.126;2023-02-01T04:42:23;5.27;;;3.57;;
9117;SDS011;4594;50.994;7.126;2023-02-01T04:44:49;12.77;;;3.80;;
9117;SDS011;4594;50.994;7.126;2023-02-01T04:47:15;12.70;;;4.53;;
9117;SDS011;4594;50.994;7.126;2023-02-01T04:49:41;16.40;;;4.00;;
9117;SDS011;4594;50.994;7.126;2023-02-01T04:52:07;13.17;;;4.50;;
9117;SDS011;4594;50.994;7.126;2023-02-01T04:54:33;7.17;;;3.70;;
9117;SDS011;4594;50.994;7.126;2023-02-01T04:56:59;10.03;;;4.10;;
9117;SDS011;4594;50.994;7.126;2023-02-01T04:59:25;11.30;;;3.70;;
9117;SDS011;4594;50.994;7.126;2023-02-01T05:01:51;10.60;;;4.17;;
9117;SDS011;4594;50.994;7.126;2023-02-01T05:04:17;15.70;;;4.33;;
9117;SDS011;4594;50.994;7.126;2023-02-01T05:06:43;11.90;;;4.37;;
9117;SDS011;4594;50.994;7.126;2023-02-01T05:09:09;15.03;;;4.10;;
9117;SDS011;4594;50.994;7.126;2023-02-01T05:11:35;10.87;;;3.83;;
9117;SDS011;4594;50.994;7.126;2023-02-01T05:14:20;11.53;;;4.27;;
9117;SDS011;4594;50.994;7.126;2023-02-01T05:16:45;6.57;;;3.77;;
9117;SDS011;4594;50.994;7.126;2023-02-01T05:19:11;11.00;;;4.10;;
9117;SDS011;4594;50.994;7.126;2023-02-01T05:21:37;10.17;;;4.10;;
9117;SDS011;4594;50.994;7.126;2023-02-01T05:24:03;9.10;;;3.40;;
9117;SDS011;4594;50.994;7.126;2023-02-01T05:26:36;10.97;;;3.80;;
9117;SDS011;4594;50.994;7.126;2023-02-01T05:29:02;8.50;;;4.03;;
9117;SDS011;4594;50.994;7.126;2023-02-01T05:31:29;10.17;;;4.10;;
9117;SDS011;4594;50.994;7.126;2023-02-01T05:33:55;9.13;;;3.87;;
9117;SDS011;4594;50.994;7.126;2023-02-01T05:36:20;9.90;;;4.00;;
9117;SDS011;4594;50.994;7.126;2023-02-01T05:38:46;12.57;;;3.93;;
9117;SDS011;4594;50.994;7.126;2023-02-01T05:41:12;10.30;;;3.80;;
9117;SDS011;4594;50.994;7.126;2023-02-01T05:43:38;11.07;;;4.33;;
9117;SDS011;4594;50.994;7.126;2023-02-01T05:46:03;10.20;;;3.50;;
9117;SDS011;4594;50.994;7.126;2023-02-01T05:48:29;14.57;;;3.70;;
9117;SDS011;4594;50.994;7.126;2023-02-01T05:50:55;8.90;;;3.50;;
9117;SDS011;4594;50.994;7.126;2023-02-01T05:53:21;8.93;;;3.67;;
9117;SDS011;4594;50.994;7.126;2023-02-01T05:55:46;17.47;;;4.13;;
9117;SDS011;4594;50.994;7.126;2023-02-01T05:58:12;7.47;;;3.20;;
9117;SDS011;4594;50.994;7.126;2023-02-01T06:00:38;7.67;;;3.23;;
9117;SDS011;4594;50.994;7.126;2023-02-01T06:03:04;11.57;;;4.17;;
9117;SDS011;4594;50.994;7.126;2023-02-01T06:05:30;9.90;;;3.13;;
9117;SDS011;4594;50.994;7.126;2023-02-01T06:07:56;8.07;;;3.40;;
9117;SDS011;4594;50.994;7.126;2023-02-01T06:10:23;18.93;;;4.47;;
9117;SDS011;4594;50.994;7.126;2023-02-01T06:12:49;12.17;;;3.60;;
9117;SDS011;4594;50.994;7.126;2023-02-01T06:15:14;9.97;;;3.57;;
9117;SDS011;4594;50.994;7.126;2023-02-01T06:17:41;12.07;;;3.60;;
9117;SDS011;4594;50.994;7.126;2023-02-01T06:20:10;14.77;;;4.03;;
9117;SDS011;4594;50.994;7.126;2023-02-01T06:22:38;16.00;;;3.23;;
9117;SDS011;4594;50.994;7.126;2023-02-01T06:25:05;18.33;;;4.00;;
9117;SDS011;4594;50.994;7.126;2023-02-01T06:27:34;15.20;;;4.07;;
9117;SDS011;4594;50.994;7.126;2023-02-01T06:30:02;11.43;;;3.40;;
9117;SDS011;4594;50.994;7.126;2023-02-01T06:32:30;12.30;;;3.77;;
9117;SDS011;4594;50.994;7.126;2023-02-01T06:34:56;8.97;;;3.20;;
9117;SDS011;4594;50.994;7.126;2023-02-01T06:37:23;7.70;;;3.47;;
9117;SDS011;4594;50.994;7.126;2023-02-01T06:39:50;11.17;;;3.60;;
9117;SDS011;4594;50.994;7.126;2023-02-01T06:42:16;7.57;;;3.53;;
9117;SDS011;4594;50.994;7.126;2023-02-01T06:44:42;14.23;;;3.80;;
9117;SDS011;4594;50.994;7.126;2023-02-01T06:47:07;8.27;;;3.60;;
9117;SDS011;4594;50.994;7.126;2023-02-01T06:49:33;6.17;;;3.33;;
9117;SDS011;4594;50.994;7.126;2023-02-01T06:51:59;12.73;;;3.90;;
9117;SDS011;4594;50.994;7.126;2023-02-01T06:54:25;8.37;;;3.40;;
9117;SDS011;4594;50.994;7.126;2023-02-01T06:56:52;13.13;;;4.10;;
9117;SDS011;4594;50.994;7.126;2023-02-01T06:59:17;9.37;;;3.73;;
9117;SDS011;4594;50.994;7.126;2023-02-01T07:01:43;7.50;;;3.70;;
9117;SDS011;4594;50.994;7.126;2023-02-01T07:04:10;17.23;;;4.53;;
9117;SDS011;4594;50.994;7.126;2023-02-01T07:06:38;14.37;;;4.67;;
9117;SDS011;4594;50.994;7.126;2023-02-01T07:09:05;7.73;;;3.70;;
9117;SDS011;4594;50.994;7.126;2023-02-01T07:11:31;13.40;;;3.87;;
9117;SDS011;4594;50.994;7.126;2023-02-01T07:13:57;8.50;;;3.20;;
9117;SDS011;4594;50.994;7.126;2023-02-01T07:16:24;7.67;;;3.30;;
9117;SDS011;4594;50.994;7.126;2023-02-01T07:18:50;9.50;;;3.57;;
9117;SDS011;4594;50.994;7.126;2023-02-01T07:21:17;8.90;;;3.50;;
9117;SDS011;4594;50.994;7.126;2023-02-01T07:23:44;7.50;;;4.00;;
9117;SDS011;4594;50.994;7.126;2023-02-01T07:26:11;7.27;;;2.97;;
9117;SDS011;4594;50.994;7.126;2023-02-01T07:28:39;11.70;;;3.67;;
9117;SDS011;4594;50.994;7.126;2023-02-01T07:31:16;10.00;;;3.97;;
9117;SDS011;4594;50.994;7.126;2023-02-01T07:33:45;11.13;;;3.50;;
9117;SDS011;4594;50.994;7.126;2023-02-01T07:36:14;8.33;;;3.53;;
9117;SDS011;4594;50.994;7.126;2023-02-01T07:38:41;10.17;;;3.47;;
9117;SDS011;4594;50.994;7.126;2023-02-01T07:41:08;12.70;;;4.30;;
9117;SDS011;4594;50.994;7.126;2023-02-01T07:43:34;12.17;;;3.67;;
9117;SDS011;4594;50.994;7.126;2023-02-01T07:46:01;10.73;;;3.63;;
9117;SDS011;4594;50.994;7.126;2023-02-01T07:48:28;6.40;;;4.00;;
9117;SDS011;4594;50.994;7.126;2023-02-01T07:53:27;11.23;;;3.93;;
9117;SDS011;4594;50.994;7.126;2023-02-01T07:55:54;13.30;;;3.37;;
9117;SDS011;4594;50.994;7.126;2023-02-01T07:58:23;11.20;;;3.40;;
9117;SDS011;4594;50.994;7.126;2023-02-01T08:00:50;11.23;;;4.10;;
9117;SDS011;4594;50.994;7.126;2023-02-01T08:03:42;5.20;;;3.30;;
9117;SDS011;4594;50.994;7.126;2023-02-01T08:06:08;10.93;;;3.43;;
9117;SDS011;4594;50.994;7.126;2023-02-01T08:08:34;9.13;;;3.73;;
9117;SDS011;4594;50.994;7.126;2023-02-01T08:11:00;11.73;;;3.83;;
9117;SDS011;4594;50.994;7.126;2023-02-01T08:13:29;9.57;;;3.37;;
9117;SDS011;4594;50.994;7.126;2023-02-01T08:15:58;9.00;;;3.30;;
9117;SDS011;4594;50.994;7.126;2023-02-01T08:18:26;13.43;;;3.60;;
9117;SDS011;4594;50.994;7.126;2023-02-01T08:20:52;10.40;;;3.47;;
9117;SDS011;4594;50.994;7.126;2023-02-01T08:23:18;11.53;;;3.77;;
9117;SDS011;4594;50.994;7.126;2023-02-01T08:25:45;10.93;;;4.30;;
9117;SDS011;4594;50.994;7.126;2023-02-01T08:28:11;9.03;;;3.50;;
9117;SDS011;4594;50.994;7.126;2023-02-01T08:30:37;7.80;;;3.50;;
9117;SDS011;4594;50.994;7.126;2023-02-01T08:33:04;11.80;;;3.67;;
9117;SDS011;4594;50.994;7.126;2023-02-01T08:35:37;11.93;;;4.23;;
9117;SDS011;4594;50.994;7.126;2023-02-01T08:38:03;10.47;;;3.70;;
9117;SDS011;4594;50.994;7.126;2023-02-01T08:40:30;7.57;;;3.43;;
9117;SDS011;4594;50.994;7.126;2023-02-01T08:42:56;11.97;;;3.80;;
9117;SDS011;4594;50.994;7.126;2023-02-01T08:45:26;14.27;;;4.40;;
9117;SDS011;4594;50.994;7.126;2023-02-01T08:47:54;9.47;;;3.67;;
9117;SDS011;4594;50.994;7.126;2023-02-01T08:50:22;16.00;;;3.57;;
9117;SDS011;4594;50.994;7.126;2023-02-01T08:52:49;9.87;;;3.47;;
9117;SDS011;4594;50.994;7.126;2023-02-01T08:55:15;14.83;;;4.07;;
9117;SDS011;4594;50.994;7.126;2023-02-01T08:57:41;14.63;;;4.67;;
9117;SDS011;4594;50.994;7.126;2023-02-01T09:00:09;11.40;;;3.90;;
9117;SDS011;4594;50.994;7.126;2023-02-01T09:02:40;13.43;;;4.00;;
9117;SDS011;4594;50.994;7.126;2023-02-01T09:05:06;15.47;;;4.50;;
9117;SDS011;4594;50.994;7.126;2023-02-01T09:07:32;9.10;;;3.63;;
9117;SDS011;4594;50.994;7.126;2023-02-01T09:09:59;12.50;;;4.10;;
9117;SDS011;4594;50.994;7.126;2023-02-01T09:12:26;10.63;;;3.47;;
9117;SDS011;4594;50.994;7.126;2023-02-01T09:14:56;10.33;;;3.90;;
9117;SDS011;4594;50.994;7.126;2023-02-01T09:17:24;13.23;;;3.53;;
9117;SDS011;4594;50.994;7.126;2023-02-01T09:19:51;6.60;;;2.90;;
9117;SDS011;4594;50.994;7.126;2023-02-01T09:22:17;11.43;;;3.87;;
9117;SDS011;4594;50.994;7.126;2023-02-01T09:24:43;9.03;;;3.60;;
9117;SDS011;4594;50.994;7.126;2023-02-01T09:27:09;9.67;;;4.00;;
9117;SDS011;4594;50.994;7.126;2023-02-01T09:29:35;19.23;;;4.10;;
9117;SDS011;4594;50.994;7.126;2023-02-01T09:32:01;9.83;;;3.67;;
9117;SDS011;4594;50.994;7.126;2023-02-01T09:34:27;22.40;;;4.17;;
9117;SDS011;4594;50.994;7.126;2023-02-01T09:36:53;11.93;;;3.57;;
9117;SDS011;4594;50.994;7.126;2023-02-01T09:39:18;14.00;;;4.10;;
9117;SDS011;4594;50.994;7.126;2023-02-01T09:47:37;14.13;;;3.67;;
9117;SDS011;4594;50.994;7.126;2023-02-01T09:50:21;12.77;;;4.60;;
9117;SDS011;4594;50.994;7.126;2023-02-01T09:55:45;16.23;;;3.87;;
9117;SDS011;4594;50.994;7.126;2023-02-01T09:58:17;12.80;;;3.83;;
9117;SDS011;4594;50.994;7.126;2023-02-01T10:01:03;11.43;;;3.90;;
9117;SDS011;4594;50.994;7.126;2023-02-01T10:03:37;7.47;;;3.60;;
9117;SDS011;4594;50.994;7.126;2023-02-01T10:12:24;12.17;;;3.30;;
9117;SDS011;4594;50.994;7.126;2023-02-01T10:21:28;12.80;;;4.00;;
9117;SDS011;4594;50.994;7.126;2023-02-01T10:24:24;7.40;;;3.30;;
9117;SDS011;4594;50.994;7.126;2023-02-01T10:29:57;10.60;;;3.73;;
9117;SDS011;4594;50.994;7.126;2023-02-01T10:32:29;16.03;;;4.47;;
9117;SDS011;4594;50.994;7.126;2023-02-01T10:35:00;17.33;;;4.13;;
9117;SDS011;4594;50.994;7.126;2023-02-01T10:37:37;12.50;;;3.60;;
9117;SDS011;4594;50.994;7.126;2023-02-01T10:40:15;9.30;;;3.37;;
9117;SDS011;4594;50.994;7.126;2023-02-01T10:42:52;10.87;;;3.20;;
9117;SDS011;4594;50.994;7.126;2023-02-01T10:45:28;7.50;;;3.20;;
9117;SDS011;4594;50.994;7.126;2023-02-01T10:47:57;11.87;;;3.50;;
9117;SDS011;4594;50.994;7.126;2023-02-01T10:53:57;11.87;;;4.70;;
9117;SDS011;4594;50.994;7.126;2023-02-01T10:56:30;10.30;;;4.20;;
9117;SDS011;4594;50.994;7.126;2023-02-01T10:59:03;13.17;;;3.77;;
9117;SDS011;4594;50.994;7.126;2023-02-01T11:01:36;8.70;;;3.63;;
9117;SDS011;4594;50.994;7.126;2023-02-01T11:04:19;11.17;;;3.53;;
9117;SDS011;4594;50.994;7.126;2023-02-01T11:06:53;5.33;;;2.90;;
9117;SDS011;4594;50.994;7.126;2023-02-01T11:09:32;7.03;;;3.47;;
9117;SDS011;4594;50.994;7.126;2023-02-01T11:12:07;12.50;;;3.83;;
9117;SDS011;4594;50.994;7.126;2023-02-01T11:15:00;11.93;;;3.50;;
9117;SDS011;4594;50.994;7.126;2023-02-01T11:17:48;11.60;;;3.27;;
9117;SDS011;4594;50.994;7.126;2023-02-01T11:20:21;9.00;;;3.57;;
9117;SDS011;4594;50.994;7.126;2023-02-01T11:23:05;5.90;;;3.07;;
9117;SDS011;4594;50.994;7.126;2023-02-01T11:25:40;9.57;;;4.03;;
9117;SDS011;4594;50.994;7.126;2023-02-01T11:28:16;10.47;;;3.40;;
9117;SDS011;4594;50.994;7.126;2023-02-01T11:30:43;11.77;;;3.73;;
9117;SDS011;4594;50.994;7.126;2023-02-01T11:33:14;8.50;;;3.10;;
9117;SDS011;4594;50.994;7.126;2023-02-01T11:35:44;10.43;;;4.10;;
9117;SDS011;4594;50.994;7.126;2023-02-01T11:40:53;10.67;;;3.50;;
9117;SDS011;4594;50.994;7.126;2023-02-01T11:45:53;10.53;;;3.33;;
9117;SDS011;4594;50.994;7.126;2023-02-01T11:48:25;11.03;;;3.73;;
9117;SDS011;4594;50.994;7.126;2023-02-01T11:51:01;12.13;;;3.00;;
9117;SDS011;4594;50.994;7.126;2023-02-01T11:54:04;11.30;;;4.50;;
9117;SDS011;4594;50.994;7.126;2023-02-01T12:00:06;9.70;;;3.67;;
9117;SDS011;4594;50.994;7.126;2023-02-01T12:11:25;5.80;;;3.43;;
9117;SDS011;4594;50.994;7.126;2023-02-01T12:14:01;12.03;;;3.90;;
9117;SDS011;4594;50.994;7.126;2023-02-01T12:28:17;8.37;;;3.40;;
9117;SDS011;4594;50.994;7.126;2023-02-01T12:39:56;6.03;;;3.10;;
9117;SDS011;4594;50.994;7.126;2023-02-01T12:43:18;5.53;;;2.97;;
9117;SDS011;4594;50.994;7.126;2023-02-01T12:46:09;6.67;;;2.70;;
9117;SDS011;4594;50.994;7.126;2023-02-01T12:49:13;9.63;;;3.13;;
9117;SDS011;4594;50.994;7.126;2023-02-01T12:51:50;7.47;;;2.80;;
9117;SDS011;4594;50.994;7.126;2023-02-01T12:54:30;11.33;;;3.40;;
9117;SDS011;4594;50.994;7.126;2023-02-01T12:57:25;8.63;;;3.13;;
9117;SDS011;4594;50.994;7.126;2023-02-01T13:00:06;7.57;;;3.10;;
9117;SDS011;4594;50.994;7.126;2023-02-01T13:06:09;7.57;;;3.47;;
9117;SDS011;4594;50.994;7.126;2023-02-01T13:11:43;6.73;;;3.57;;
9117;SDS011;4594;50.994;7.126;2023-02-01T13:17:23;10.33;;;3.53;;
9117;SDS011;4594;50.994;7.126;2023-02-01T13:20:04;9.67;;;3.47;;
9117;SDS011;4594;50.994;7.126;2023-02-01T13:22:39;7.60;;;3.03;;
9117;SDS011;4594;50.994;7.126;2023-02-01T13:27:35;6.60;;;3.07;;
9117;SDS011;4594;50.994;7.126;2023-02-01T13:30:11;8.87;;;3.47;;
9117;SDS011;4594;50.994;7.126;2023-02-01T13:33:19;6.60;;;3.30;;
9117;SDS011;4594;50.994;7.126;2023-02-01T13:45:20;8.53;;;2.97;;
9117;SDS011;4594;50.994;7.126;2023-02-01T13:47:51;12.03;;;3.43;;
9117;SDS011;4594;50.994;7.126;2023-02-01T13:50:29;7.43;;;3.30;;
9117;SDS011;4594;50.994;7.126;2023-02-01T13:53:48;8.43;;;3.53;;
9117;SDS011;4594;50.994;7.126;2023-02-01T13:55:59;11.57;;;3.50;;
9117;SDS011;4594;50.994;7.126;2023-02-01T14:01:30;7.50;;;3.20;;
9117;SDS011;4594;50.994;7.126;2023-02-01T14:03:55;7.10;;;3.40;;
9117;SDS011;4594;50.994;7.126;2023-02-01T14:19:26;6.73;;;3.40;;
9117;SDS011;4594;50.994;7.126;2023-02-01T14:21:55;8.90;;;3.03;;
9117;SDS011;4594;50.994;7.126;2023-02-01T14:24:42;7.70;;;2.70;;
9117;SDS011;4594;50.994;7.126;2023-02-01T14:27:29;6.67;;;3.20;;
9117;SDS011;4594;50.994;7.126;2023-02-01T14:30:02;12.17;;;2.87;;
9117;SDS011;4594;50.994;7.126;2023-02-01T14:32:37;8.47;;;2.57;;
9117;SDS011;4594;50.994;7.126;2023-02-01T14:35:07;7.70;;;3.30;;
9117;SDS011;4594;50.994;7.126;2023-02-01T14:37:44;10.43;;;3.13;;
9117;SDS011;4594;50.994;7.126;2023-02-01T14:40:16;8.60;;;3.17;;
9117;SDS011;4594;50.994;7.126;2023-02-01T14:42:50;10.00;;;3.07;;
9117;SDS011;4594;50.994;7.126;2023-02-01T14:47:51;8.57;;;2.93;;
9117;SDS011;4594;50.994;7.126;2023-02-01T14:50:41;6.73;;;3.27;;
9117;SDS011;4594;50.994;7.126;2023-02-01T14:53:14;9.43;;;2.93;;
9117;SDS011;4594;50.994;7.126;2023-02-01T15:06:49;7.10;;;3.10;;
9117;SDS011;4594;50.994;7.126;2023-02-01T15:09:27;10.47;;;3.40;;
9117;SDS011;4594;50.994;7.126;2023-02-01T15:14:48;12.27;;;2.80;;
9117;SDS011;4594;50.994;7.126;2023-02-01T15:17:49;10.03;;;2.50;;
9117;SDS011;4594;50.994;7.126;2023-02-01T15:20:31;6.80;;;3.40;;
9117;SDS011;4594;50.994;7.126;2023-02-01T15:23:05;6.13;;;2.93;;
9117;SDS011;4594;50.994;7.126;2023-02-01T15:25:45;7.03;;;3.00;;
9117;SDS011;4594;50.994;7.126;2023-02-01T15:28:15;8.20;;;2.97;;
9117;SDS011;4594;50.994;7.126;2023-02-01T15:33:25;7.23;;;2.90;;
9117;SDS011;4594;50.994;7.126;2023-02-01T15:35:54;8.20;;;3.40;;
9117;SDS011;4594;50.994;7.126;2023-02-01T15:41:03;7.50;;;3.10;;
9117;SDS011;4594;50.994;7.126;2023-02-01T15:46:52;8.70;;;3.30;;
9117;SDS011;4594;50.994;7.126;2023-02-01T15:49:19;11.67;;;3.20;;
9117;SDS011;4594;50.994;7.126;2023-02-01T15:51:51;7.87;;;3.13;;
9117;SDS011;4594;50.994;7.126;2023-02-01T15:54:19;9.13;;;3.60;;
9117;SDS011;4594;50.994;7.126;2023-02-01T15:57:14;8.23;;;3.40;;
9117;SDS011;4594;50.994;7.126;2023-02-01T15:59:59;8.37;;;3.57;;
9117;SDS011;4594;50.994;7.126;2023-02-01T16:02:34;10.93;;;2.73;;
9117;SDS011;4594;50.994;7.126;2023-02-01T16:05:21;9.13;;;3.30;;
9117;SDS011;4594;50.994;7.126;2023-02-01T16:08:10;8.53;;;3.20;;
9117;SDS011;4594;50.994;7.126;2023-02-01T16:10:52;4.03;;;2.83;;
9117;SDS011;4594;50.994;7.126;2023-02-01T16:13:26;6.00;;;3.07;;
9117;SDS011;4594;50.994;7.126;2023-02-01T16:15:52;8.23;;;3.10;;
9117;SDS011;4594;50.994;7.126;2023-02-01T16:18:19;6.20;;;3.27;;
9117;SDS011;4594;50.994;7.126;2023-02-01T16:20:45;10.53;;;3.30;;
9117;SDS011;4594;50.994;7.126;2023-02-01T16:23:13;7.20;;;3.20;;
9117;SDS011;4594;50.994;7.126;2023-02-01T16:25:39;7.60;;;3.07;;
9117;SDS011;4594;50.994;7.126;2023-02-01T16:28:05;6.23;;;2.80;;
9117;SDS011;4594;50.994;7.126;2023-02-01T16:30:31;7.10;;;2.90;;
9117;SDS011;4594;50.994;7.126;2023-02-01T16:32:58;9.57;;;3.40;;
9117;SDS011;4594;50.994;7.126;2023-02-01T16:35:34;8.13;;;3.10;;
9117;SDS011;4594;50.994;7.126;2023-02-01T16:38:02;9.90;;;2.83;;
9117;SDS011;4594;50.994;7.126;2023-02-01T16:40:37;7.07;;;3.10;;
9117;SDS011;4594;50.994;7.126;2023-02-01T16:43:05;7.27;;;3.17;;
9117;SDS011;4594;50.994;7.126;2023-02-01T16:45:39;10.13;;;3.00;;
9117;SDS011;4594;50.994;7.126;2023-02-01T16:48:07;9.60;;;2.77;;
9117;SDS011;4594;50.994;7.126;2023-02-01T16:50:33;11.27;;;3.17;;
9117;SDS011;4594;50.994;7.126;2023-02-01T16:52:59;8.37;;;2.70;;
9117;SDS011;4594;50.994;7.126;2023-02-01T16:55:26;9.63;;;3.40;;
9117;SDS011;4594;50.994;7.126;2023-02-01T16:57:52;6.63;;;2.67;;
9117;SDS011;4594;50.994;7.126;2023-02-01T17:00:18;8.77;;;3.57;;
9117;SDS011;4594;50.994;7.126;2023-02-01T17:02:45;11.43;;;3.13;;
9117;SDS011;4594;50.994;7.126;2023-02-01T17:05:11;13.63;;;2.80;;
9117;SDS011;4594;50.994;7.126;2023-02-01T17:07:37;9.30;;;3.43;;
9117;SDS011;4594;50.994;7.126;2023-02-01T17:10:05;7.77;;;3.30;;
9117;SDS011;4594;50.994;7.126;2023-02-01T17:12:39;6.80;;;2.97;;
9117;SDS011;4594;50.994;7.126;2023-02-01T17:15:05;9.23;;;2.83;;
9117;SDS011;4594;50.994;7.126;2023-02-01T17:17:33;7.50;;;2.97;;
9117;SDS011;4594;50.994;7.126;2023-02-01T17:20:03;9.80;;;3.20;;
9117;SDS011;4594;50.994;7.126;2023-02-01T17:22:31;6.27;;;3.00;;
9117;SDS011;4594;50.994;7.126;2023-02-01T17:24:57;12.10;;;3.60;;
9117;SDS011;4594;50.994;7.126;2023-02-01T17:27:22;10.07;;;3.10;;
9117;SDS011;4594;50.994;7.126;2023-02-01T17:29:48;7.80;;;3.57;;
9117;SDS011;4594;50.994;7.126;2023-02-01T17:32:17;23.33;;;3.80;;
9117;SDS011;4594;50.994;7.126;2023-02-01T17:34:47;5.47;;;2.67;;
9117;SDS011;4594;50.994;7.126;2023-02-01T17:37:22;6.80;;;3.00;;
9117;SDS011;4594;50.994;7.126;2023-02-01T17:39:55;8.43;;;3.10;;
9117;SDS011;4594;50.994;7.126;2023-02-01T17:42:21;7.90;;;3.37;;
9117;SDS011;4594;50.994;7.126;2023-02-01T17:44:55;9.37;;;2.67;;
9117;SDS011;4594;50.994;7.126;2023-02-01T17:47:38;6.97;;;3.93;;
9117;SDS011;4594;50.994;7.126;2023-02-01T17:50:04;10.00;;;3.87;;
9117;SDS011;4594;50.994;7.126;2023-02-01T17:52:30;9.60;;;3.00;;
9117;SDS011;4594;50.994;7.126;2023-02-01T17:55:00;7.73;;;3.23;;
9117;SDS011;4594;50.994;7.126;2023-02-01T17:57:27;10.60;;;3.40;;
9117;SDS011;4594;50.994;7.126;2023-02-01T17:59:53;7.93;;;2.90;;
9117;SDS011;4594;50.994;7.126;2023-02-01T18:02:19;3.00;;;2.60;;
9117;SDS011;4594;50.994;7.126;2023-02-01T18:04:48;9.67;;;3.63;;
9117;SDS011;4594;50.994;7.126;2023-02-01T18:07:15;8.73;;;2.83;;
9117;SDS011;4594;50.994;7.126;2023-02-01T18:09:41;8.93;;;3.07;;
9117;SDS011;4594;50.994;7.126;2023-02-01T18:12:14;5.13;;;3.00;;
9117;SDS011;4594;50.994;7.126;2023-02-01T18:14:46;10.73;;;3.07;;